createdAt,value
2019-05-28T00:00:14.248Z,18.84
2019-05-28T00:02:43.733Z,18.88
2019-05-28T00:05:13.483Z,18.89
2019-05-28T00:07:42.995Z,18.90
2019-05-28T00:10:12.704Z,18.95
2019-05-28T00:12:42.175Z,18.94
2019-05-28T00:15:13.419Z,18.97
2019-05-28T00:17:42.909Z,18.94
2019-05-28T00:20:12.699Z,18.83
2019-05-28T00:22:42.200Z,18.83
2019-05-28T00:25:11.901Z,18.88
2019-05-28T00:27:41.388Z,18.89
2019-05-28T00:30:19.851Z,18.88
2019-05-28T00:32:42.172Z,18.91
2019-05-28T00:35:12.229Z,18.94
2019-05-28T00:37:41.736Z,18.87
2019-05-28T00:40:11.937Z,18.86
2019-05-28T00:42:42.440Z,18.86
2019-05-28T00:45:12.746Z,18.90
2019-05-28T00:47:42.265Z,18.86
2019-05-28T00:50:12.111Z,18.86
2019-05-28T00:52:41.610Z,18.87
2019-05-28T00:55:11.524Z,18.91
2019-05-28T00:57:43.328Z,18.82
2019-05-28T01:00:13.482Z,18.80
2019-05-28T01:02:42.987Z,18.77
2019-05-28T01:05:15.413Z,18.70
2019-05-28T01:07:44.924Z,18.72
2019-05-28T01:10:14.597Z,18.68
2019-05-28T01:12:44.109Z,18.77
2019-05-28T01:15:13.791Z,18.65
2019-05-28T01:17:43.335Z,18.65
2019-05-28T01:20:13.015Z,18.69
2019-05-28T01:22:42.513Z,18.66
2019-05-28T01:25:12.009Z,18.64
2019-05-28T01:27:41.513Z,18.62
2019-05-28T01:30:12.252Z,18.52
2019-05-28T01:32:41.738Z,18.52
2019-05-28T01:35:11.322Z,18.54
2019-05-28T01:37:40.973Z,18.44
2019-05-28T01:40:10.668Z,18.42
2019-05-28T01:42:40.171Z,18.39
2019-05-28T01:45:10.145Z,18.41
2019-05-28T01:47:39.678Z,18.43
2019-05-28T01:50:09.363Z,18.36
2019-05-28T01:52:38.959Z,18.36
2019-05-28T01:55:08.719Z,18.33
2019-05-28T01:57:38.256Z,18.25
2019-05-28T02:00:08.377Z,18.21
2019-05-28T02:02:37.963Z,18.19
2019-05-28T02:05:08.277Z,18.24
2019-05-28T02:07:37.786Z,18.33
2019-05-28T02:10:07.687Z,18.34
2019-05-28T02:12:37.186Z,18.39
2019-05-28T02:15:07.457Z,18.46
2019-05-28T02:17:38.041Z,18.46
2019-05-28T02:20:08.641Z,18.46
2019-05-28T02:22:38.161Z,18.49
2019-05-28T02:25:08.015Z,18.48
2019-05-28T02:27:37.531Z,18.45
2019-05-28T02:30:09.266Z,18.44
2019-05-28T02:32:38.912Z,18.42
2019-05-28T02:35:08.878Z,18.35
2019-05-28T02:37:38.405Z,18.31
2019-05-28T02:40:08.224Z,18.25
2019-05-28T02:42:37.723Z,18.21
2019-05-28T02:45:08.592Z,18.11
2019-05-28T02:47:38.200Z,18.06
2019-05-28T02:50:08.205Z,18.02
2019-05-28T02:52:37.981Z,17.95
2019-05-28T02:55:07.750Z,17.87
2019-05-28T02:57:37.921Z,17.80
2019-05-28T03:00:07.901Z,17.80
2019-05-28T03:02:37.684Z,17.77
2019-05-28T03:05:07.259Z,17.70
2019-05-28T03:07:38.304Z,17.64
2019-05-28T03:10:08.093Z,17.56
2019-05-28T03:12:37.602Z,17.45
2019-05-28T03:15:07.184Z,17.37
2019-05-28T03:17:37.047Z,17.29
2019-05-28T03:20:07.219Z,17.14
2019-05-28T03:22:38.478Z,17.09
2019-05-28T03:25:08.676Z,17.11
2019-05-28T03:27:38.212Z,17.14
2019-05-28T03:30:08.059Z,17.03
2019-05-28T03:32:37.859Z,16.98
2019-05-28T03:35:07.458Z,17.01
2019-05-28T03:37:37.249Z,17.04
2019-05-28T03:40:08.395Z,17.06
2019-05-28T03:42:37.911Z,17.08
2019-05-28T03:45:07.435Z,17.14
2019-05-28T03:47:36.951Z,17.09
2019-05-28T03:50:06.749Z,17.12
2019-05-28T03:52:37.235Z,17.13
2019-05-28T03:55:06.890Z,17.07
2019-05-28T03:57:36.415Z,17.07
2019-05-28T04:00:06.519Z,17.07
2019-05-28T04:02:36.016Z,17.08
2019-05-28T04:05:05.679Z,17.02
2019-05-28T04:07:35.194Z,17.02
2019-05-28T04:10:05.104Z,17.06
2019-05-28T04:12:34.627Z,17.08
2019-05-28T04:15:04.488Z,17.08
2019-05-28T04:17:33.986Z,17.10
2019-05-28T04:20:04.289Z,17.15
2019-05-28T04:22:33.805Z,17.24
2019-05-28T04:25:03.494Z,17.30
2019-05-28T04:27:32.990Z,17.37
2019-05-28T04:30:02.531Z,17.33
2019-05-28T04:32:40.405Z,17.32
2019-05-28T04:35:03.335Z,17.37
2019-05-28T04:37:32.850Z,17.43
2019-05-28T04:40:02.392Z,17.40
2019-05-28T04:42:31.903Z,17.42
2019-05-28T04:45:01.425Z,17.40
2019-05-28T04:47:30.945Z,17.41
2019-05-28T04:50:00.438Z,17.39
2019-05-28T04:52:30.932Z,17.44
2019-05-28T04:55:01.651Z,17.54
2019-05-28T04:57:31.156Z,17.62
2019-05-28T05:00:00.677Z,17.77
2019-05-28T05:02:31.249Z,17.88
2019-05-28T05:05:00.765Z,17.95
2019-05-28T05:07:30.283Z,18.00
2019-05-28T05:09:59.785Z,17.87
2019-05-28T05:12:29.345Z,17.92
2019-05-28T05:14:58.861Z,18.00
2019-05-28T05:17:28.402Z,18.05
2019-05-28T05:19:58.882Z,18.06
2019-05-28T05:22:28.388Z,18.00
2019-05-28T05:24:57.893Z,17.99
2019-05-28T05:27:27.405Z,18.07
2019-05-28T05:29:56.920Z,17.81
2019-05-28T05:32:27.877Z,17.67
2019-05-28T05:34:57.497Z,17.77
2019-05-28T05:37:27.013Z,17.80
2019-05-28T05:39:56.525Z,17.49
2019-05-28T05:42:26.133Z,17.49
2019-05-28T05:44:55.679Z,17.39
2019-05-28T05:47:25.211Z,17.42
2019-05-28T05:49:54.921Z,17.26
2019-05-28T05:52:24.417Z,17.30
2019-05-28T05:54:53.929Z,17.26
2019-05-28T05:57:23.437Z,17.39
2019-05-28T05:59:53.019Z,17.27
2019-05-28T06:02:23.217Z,17.18
2019-05-28T06:04:52.895Z,16.86
2019-05-28T06:07:22.424Z,16.75
2019-05-28T06:09:51.964Z,16.66
2019-05-28T06:12:21.451Z,16.88
2019-05-28T06:14:51.165Z,17.11
2019-05-28T06:17:20.661Z,17.09
2019-05-28T06:19:50.192Z,17.28
2019-05-28T06:22:19.711Z,17.43
2019-05-28T06:24:49.245Z,17.13
2019-05-28T06:27:19.525Z,17.03
2019-05-28T06:29:49.119Z,17.34
2019-05-28T06:32:18.611Z,17.58
2019-05-28T06:34:48.133Z,17.80
2019-05-28T06:37:17.798Z,17.89
2019-05-28T06:39:47.308Z,18.02
2019-05-28T06:42:16.821Z,18.02
2019-05-28T06:44:46.375Z,18.28
2019-05-28T06:47:15.854Z,18.42
2019-05-28T06:49:45.361Z,18.46
2019-05-28T06:52:14.885Z,18.54
2019-05-28T06:54:44.405Z,18.83
2019-05-28T06:57:22.897Z,18.98
2019-05-28T06:59:46.249Z,19.40
2019-05-28T07:02:15.766Z,19.46
2019-05-28T07:04:45.304Z,19.38
2019-05-28T07:07:14.795Z,19.59
2019-05-28T07:09:44.310Z,19.68
2019-05-28T07:12:13.799Z,19.86
2019-05-28T07:14:44.404Z,20.02
2019-05-28T07:17:13.925Z,19.67
2019-05-28T07:19:43.454Z,19.84
2019-05-28T07:22:12.967Z,20.19
2019-05-28T07:24:42.483Z,20.24
2019-05-28T07:27:11.997Z,20.43
2019-05-28T07:29:41.518Z,20.26
2019-05-28T07:32:11.051Z,20.33
2019-05-28T07:34:40.591Z,20.35
2019-05-28T07:37:10.115Z,20.26
2019-05-28T07:39:39.933Z,20.15
2019-05-28T07:42:09.742Z,20.06
2019-05-28T07:44:39.249Z,20.01
2019-05-28T07:47:11.198Z,19.55
2019-05-28T07:49:40.075Z,19.52
2019-05-28T07:52:09.598Z,19.38
2019-05-28T07:54:39.645Z,19.14
2019-05-28T07:57:09.221Z,19.26
2019-05-28T07:59:38.731Z,19.41
2019-05-28T08:02:08.255Z,19.59
2019-05-28T08:04:46.908Z,19.70
2019-05-28T08:07:10.025Z,19.77
2019-05-28T08:09:39.540Z,19.63
2019-05-28T08:12:09.053Z,19.71
2019-05-28T08:14:38.564Z,19.54
2019-05-28T08:17:08.135Z,19.27
2019-05-28T08:19:37.690Z,18.54
2019-05-28T08:22:07.256Z,18.70
2019-05-28T08:24:36.857Z,18.76
2019-05-28T08:27:06.356Z,18.75
2019-05-28T08:29:36.846Z,18.64
2019-05-28T08:32:06.432Z,18.84
2019-05-28T08:34:35.931Z,18.86
2019-05-28T08:37:06.684Z,19.00
2019-05-28T08:39:36.441Z,18.55
2019-05-28T08:42:06.010Z,18.60
2019-05-28T08:44:35.549Z,18.68
2019-05-28T08:47:05.073Z,18.77
2019-05-28T08:49:34.564Z,18.69
2019-05-28T08:52:04.151Z,18.77
2019-05-28T08:54:33.662Z,19.04
2019-05-28T08:57:03.217Z,18.84
2019-05-28T08:59:33.656Z,18.95
2019-05-28T09:02:03.202Z,18.82
2019-05-28T09:04:32.709Z,19.35
2019-05-28T09:07:02.225Z,19.47
2019-05-28T09:09:31.734Z,19.27
2019-05-28T09:12:01.247Z,19.33
2019-05-28T09:14:54.042Z,19.14
2019-05-28T09:17:02.090Z,19.16
2019-05-28T09:19:31.633Z,19.09
2019-05-28T09:22:01.128Z,19.19
2019-05-28T09:24:30.655Z,19.31
2019-05-28T09:27:00.300Z,19.25
2019-05-28T09:29:29.786Z,19.35
2019-05-28T09:31:59.287Z,19.49
2019-05-28T09:34:28.787Z,19.54
2019-05-28T09:36:58.278Z,19.39
2019-05-28T09:39:27.799Z,19.46
2019-05-28T09:41:57.303Z,18.91
2019-05-28T09:44:26.890Z,18.63
2019-05-28T09:46:56.423Z,18.90
2019-05-28T09:49:25.913Z,19.11
2019-05-28T09:51:55.826Z,19.05
2019-05-28T09:54:25.857Z,19.26
2019-05-28T09:57:00.803Z,19.53
2019-05-28T09:59:41.054Z,18.96
2019-05-28T10:02:02.889Z,18.27
2019-05-28T10:04:47.467Z,19.11
2019-05-28T10:07:04.543Z,18.83
2019-05-28T10:09:33.996Z,19.21
2019-05-28T10:12:03.573Z,19.09
2019-05-28T10:14:33.197Z,19.58
2019-05-28T10:17:02.835Z,19.65
2019-05-28T10:19:32.315Z,19.88
2019-05-28T10:22:01.874Z,20.00
2019-05-28T10:24:31.382Z,20.09
2019-05-28T10:27:00.974Z,19.83
2019-05-28T10:29:33.023Z,19.72
2019-05-28T10:32:02.708Z,19.41
2019-05-28T10:34:32.347Z,19.61
2019-05-28T10:37:01.883Z,19.87
2019-05-28T10:39:31.367Z,19.58
2019-05-28T10:42:00.902Z,19.58
2019-05-28T10:44:30.551Z,19.29
2019-05-28T10:47:00.079Z,19.70
2019-05-28T10:49:29.583Z,19.94
2019-05-28T10:51:59.160Z,20.03
2019-05-28T10:54:28.655Z,19.78
2019-05-28T10:56:58.163Z,20.12
2019-05-28T10:59:27.671Z,20.34
2019-05-28T11:01:57.170Z,20.25
2019-05-28T11:04:26.655Z,20.58
2019-05-28T11:06:56.152Z,20.39
2019-05-28T11:09:25.653Z,20.63
2019-05-28T11:11:55.144Z,20.84
2019-05-28T11:14:24.808Z,20.47
2019-05-28T11:16:54.262Z,20.45
2019-05-28T11:19:23.754Z,20.59
2019-05-28T11:21:53.281Z,20.88
2019-05-28T11:24:22.766Z,20.61
2019-05-28T11:26:52.277Z,20.25
2019-05-28T11:29:21.762Z,20.57
2019-05-28T11:31:51.310Z,20.45
2019-05-28T11:34:20.794Z,20.71
2019-05-28T11:36:50.317Z,20.62
2019-05-28T11:39:19.800Z,20.68
2019-05-28T11:41:49.391Z,20.68
2019-05-28T11:44:18.874Z,20.66
2019-05-28T11:46:48.381Z,20.74
2019-05-28T11:49:17.877Z,20.71
2019-05-28T11:51:47.487Z,20.30
2019-05-28T11:54:17.016Z,20.50
2019-05-28T11:56:46.514Z,20.55
2019-05-28T11:59:16.013Z,20.69
2019-05-28T12:01:45.531Z,20.83
2019-05-28T12:04:15.026Z,20.76
2019-05-28T12:06:44.525Z,20.09
2019-05-28T12:09:14.051Z,20.20
2019-05-28T12:11:43.524Z,20.44
2019-05-28T12:14:13.104Z,20.51
2019-05-28T12:16:42.608Z,19.85
2019-05-28T12:19:12.169Z,20.24
2019-05-28T12:21:41.689Z,20.30
2019-05-28T12:24:11.200Z,20.39
2019-05-28T12:26:40.823Z,20.22
2019-05-28T12:29:10.375Z,19.63
2019-05-28T12:31:39.887Z,19.47
2019-05-28T12:34:09.396Z,19.55
2019-05-28T12:36:38.931Z,18.96
2019-05-28T12:39:08.938Z,19.32
2019-05-28T12:41:38.466Z,19.17
2019-05-28T12:44:07.951Z,19.69
2019-05-28T12:46:37.544Z,19.89
2019-05-28T12:49:07.035Z,19.99
2019-05-28T12:51:36.546Z,19.76
2019-05-28T12:54:06.112Z,19.90
2019-05-28T12:56:35.626Z,20.02
2019-05-28T12:59:05.215Z,19.96
2019-05-28T13:01:34.698Z,20.13
2019-05-28T13:04:04.596Z,20.30
2019-05-28T13:06:34.280Z,20.36
2019-05-28T13:09:06.340Z,20.50
2019-05-28T13:11:35.835Z,20.45
2019-05-28T13:14:05.460Z,20.37
2019-05-28T13:16:34.970Z,20.35
2019-05-28T13:19:05.444Z,20.18
2019-05-28T13:21:34.944Z,20.36
2019-05-28T13:24:05.373Z,20.25
2019-05-28T13:26:34.859Z,20.23
2019-05-28T13:29:04.441Z,20.09
2019-05-28T13:31:33.949Z,20.25
2019-05-28T13:34:04.768Z,20.28
2019-05-28T13:36:34.274Z,20.41
2019-05-28T13:39:04.834Z,20.54
2019-05-28T13:41:34.392Z,20.62
2019-05-28T13:44:07.735Z,20.44
2019-05-28T13:46:35.168Z,20.38
2019-05-28T13:49:04.756Z,20.43
2019-05-28T13:51:34.270Z,20.30
2019-05-28T13:54:03.774Z,20.01
2019-05-28T13:56:33.482Z,20.04
2019-05-28T13:59:02.995Z,20.12
2019-05-28T14:01:32.485Z,20.10
2019-05-28T14:04:01.989Z,20.03
2019-05-28T14:06:32.468Z,20.08
2019-05-28T14:09:01.963Z,19.66
2019-05-28T14:11:33.032Z,19.86
2019-05-28T14:14:02.565Z,20.09
2019-05-28T14:16:32.052Z,20.16
2019-05-28T14:19:01.565Z,20.21
2019-05-28T14:21:31.061Z,20.40
2019-05-28T14:24:00.562Z,20.37
2019-05-28T14:26:30.060Z,20.36
2019-05-28T14:28:59.565Z,20.26
2019-05-28T14:31:29.070Z,20.15
2019-05-28T14:33:58.583Z,20.06
2019-05-28T14:36:28.095Z,20.02
2019-05-28T14:39:03.190Z,20.05
2019-05-28T14:41:28.808Z,20.10
2019-05-28T14:43:58.322Z,20.13
2019-05-28T14:46:27.841Z,20.04
2019-05-28T14:48:57.350Z,20.03
2019-05-28T14:51:26.830Z,20.05
2019-05-28T14:53:56.364Z,19.96
2019-05-28T14:56:25.878Z,19.90
2019-05-28T14:58:55.374Z,20.04
2019-05-28T15:01:24.912Z,20.04
2019-05-28T15:03:54.402Z,20.15
2019-05-28T15:06:23.934Z,20.20
2019-05-28T15:08:53.451Z,20.02
2019-05-28T15:11:22.959Z,20.25
2019-05-28T15:13:52.460Z,20.37
2019-05-28T15:16:22.007Z,20.52
2019-05-28T15:18:51.547Z,20.75
2019-05-28T15:21:21.129Z,20.96
2019-05-28T15:23:50.741Z,21.13
2019-05-28T15:26:20.253Z,21.18
2019-05-28T15:28:49.736Z,21.10
2019-05-28T15:31:19.240Z,21.03
2019-05-28T15:33:48.729Z,21.00
2019-05-28T15:36:18.241Z,21.04
2019-05-28T15:38:47.717Z,20.97
2019-05-28T15:41:17.212Z,20.83
2019-05-28T15:43:46.703Z,20.58
2019-05-28T15:46:16.205Z,20.75
2019-05-28T15:48:45.725Z,20.62
2019-05-28T15:51:15.231Z,20.67
2019-05-28T15:53:44.719Z,20.62
2019-05-28T15:56:14.230Z,20.69
2019-05-28T15:58:43.709Z,20.83
2019-05-28T16:01:13.199Z,20.96
2019-05-28T16:03:42.689Z,20.97
2019-05-28T16:06:12.261Z,20.97
2019-05-28T16:08:41.750Z,21.03
2019-05-28T16:11:11.242Z,21.04
2019-05-28T16:13:40.738Z,21.03
2019-05-28T16:16:10.370Z,21.07
2019-05-28T16:18:39.836Z,20.75
2019-05-28T16:21:09.354Z,20.72
2019-05-28T16:23:38.845Z,20.68
2019-05-28T16:26:08.365Z,20.64
2019-05-28T16:28:37.857Z,20.67
2019-05-28T16:31:12.335Z,20.74
2019-05-28T16:33:38.577Z,20.69
2019-05-28T16:36:08.109Z,20.71
2019-05-28T16:38:37.610Z,20.67
2019-05-28T16:41:07.117Z,20.43
2019-05-28T16:43:36.642Z,20.57
2019-05-28T16:46:06.964Z,20.48
2019-05-28T16:48:37.446Z,20.37
2019-05-28T16:51:06.949Z,20.25
2019-05-28T16:53:36.573Z,20.08
2019-05-28T16:56:06.130Z,20.06
2019-05-28T16:58:35.678Z,19.66
2019-05-28T17:01:21.962Z,19.87
2019-05-28T17:03:36.590Z,19.96
2019-05-28T17:06:06.120Z,20.01
2019-05-28T17:08:35.669Z,19.95
2019-05-28T17:11:05.225Z,19.96
2019-05-28T17:13:34.785Z,20.01
2019-05-28T17:16:04.381Z,19.92
2019-05-28T17:18:33.908Z,19.96
2019-05-28T17:21:03.408Z,20.01
2019-05-28T17:23:33.926Z,19.98
2019-05-28T17:26:03.438Z,19.91
2019-05-28T17:28:32.910Z,19.79
2019-05-28T17:31:02.490Z,19.52
2019-05-28T17:33:31.996Z,19.19
2019-05-28T17:36:01.507Z,18.99
2019-05-28T17:38:31.035Z,18.83
2019-05-28T17:41:00.646Z,18.69
2019-05-28T17:43:30.134Z,18.51
2019-05-28T17:45:59.732Z,18.50
2019-05-28T17:48:29.253Z,17.61
2019-05-28T17:50:58.815Z,18.05
2019-05-28T17:53:28.292Z,17.97
2019-05-28T17:55:57.812Z,17.79
2019-05-28T17:58:30.853Z,17.83
2019-05-28T18:00:58.518Z,17.72
2019-05-28T18:03:28.009Z,17.75
2019-05-28T18:05:57.520Z,17.45
2019-05-28T18:08:29.375Z,17.42
2019-05-28T18:11:04.056Z,17.54
2019-05-28T18:13:29.794Z,17.49
2019-05-28T18:15:59.431Z,17.37
2019-05-28T18:18:29.094Z,17.35
2019-05-28T18:20:58.642Z,17.35
2019-05-28T18:23:28.474Z,17.01
2019-05-28T18:25:58.010Z,17.15
2019-05-28T18:28:27.573Z,17.01
2019-05-28T18:30:57.515Z,16.98
2019-05-28T18:33:27.316Z,17.06
2019-05-28T18:35:56.842Z,17.03
2019-05-28T18:38:26.339Z,17.21
2019-05-28T18:40:55.970Z,17.14
2019-05-28T18:43:25.534Z,17.12
2019-05-28T18:45:55.037Z,17.02
2019-05-28T18:48:25.551Z,16.24
2019-05-28T18:50:55.051Z,17.04
2019-05-28T18:53:24.646Z,16.88
2019-05-28T18:55:54.283Z,16.68
2019-05-28T18:58:23.824Z,16.77
2019-05-28T19:00:53.336Z,16.74
2019-05-28T19:03:22.832Z,16.57
2019-05-28T19:05:52.353Z,16.69
2019-05-28T19:08:21.846Z,16.69
2019-05-28T19:10:51.333Z,16.76
2019-05-28T19:13:20.833Z,16.80
2019-05-28T19:15:50.351Z,16.60
2019-05-28T19:18:19.834Z,16.53
2019-05-28T19:20:49.408Z,16.48
2019-05-28T19:23:18.960Z,16.70
2019-05-28T19:25:48.493Z,16.62
2019-05-28T19:28:18.742Z,16.54
2019-05-28T19:30:50.469Z,16.30
2019-05-28T19:33:19.777Z,16.11
2019-05-28T19:35:49.350Z,16.26
2019-05-28T19:38:19.266Z,15.89
2019-05-28T19:40:48.785Z,15.87
2019-05-28T19:43:18.296Z,15.93
2019-05-28T19:45:47.852Z,15.82
2019-05-28T19:48:17.362Z,15.86
2019-05-28T19:50:46.891Z,16.08
2019-05-28T19:53:16.461Z,16.13
2019-05-28T19:55:45.958Z,16.23
2019-05-28T19:58:15.581Z,16.16
2019-05-28T20:00:45.099Z,16.22
2019-05-28T20:03:14.625Z,16.14
2019-05-28T20:05:44.136Z,15.99
2019-05-28T20:08:13.777Z,16.08
2019-05-28T20:10:43.346Z,16.16
2019-05-28T20:13:12.862Z,16.16
2019-05-28T20:15:42.348Z,16.09
2019-05-28T20:18:25.923Z,16.07
2019-05-28T20:20:43.098Z,16.20
2019-05-28T20:23:12.665Z,16.23
2019-05-28T20:25:42.170Z,16.20
2019-05-28T20:28:12.676Z,16.25
2019-05-28T20:30:42.158Z,16.31
2019-05-28T20:33:11.700Z,16.77
2019-05-28T20:35:41.276Z,16.88
2019-05-28T20:38:12.464Z,16.84
2019-05-28T20:40:42.207Z,16.94
2019-05-28T20:43:11.756Z,16.98
2019-05-28T20:45:41.353Z,16.95
2019-05-28T20:48:11.850Z,16.71
2019-05-28T20:50:41.340Z,16.48
2019-05-28T20:53:10.837Z,16.41
2019-05-28T20:55:40.334Z,16.47
2019-05-28T20:58:09.838Z,16.26
2019-05-28T21:00:39.583Z,15.96
2019-05-28T21:03:09.076Z,16.13
2019-05-28T21:05:38.566Z,16.26
2019-05-28T21:08:08.337Z,16.09
2019-05-28T21:10:37.854Z,16.05
2019-05-28T21:13:07.496Z,16.12
2019-05-28T21:15:36.998Z,16.12
2019-05-28T21:18:07.372Z,16.10
2019-05-28T21:20:36.845Z,16.20
2019-05-28T21:23:06.369Z,16.29
2019-05-28T21:25:35.855Z,16.32
2019-05-28T21:28:05.427Z,16.10
2019-05-28T21:30:34.941Z,15.83
2019-05-28T21:33:04.439Z,15.83
2019-05-28T21:35:33.926Z,15.52
2019-05-28T21:38:03.524Z,15.38
2019-05-28T21:40:33.012Z,15.55
2019-05-28T21:43:09.355Z,15.35
2019-05-28T21:45:33.704Z,15.33
2019-05-28T21:48:03.215Z,15.36
2019-05-28T21:50:32.704Z,15.30
2019-05-28T21:53:03.212Z,15.04
2019-05-28T21:55:32.789Z,14.98
2019-05-28T21:58:02.285Z,14.93
2019-05-28T22:00:47.919Z,15.04
2019-05-28T22:03:18.450Z,15.06
2019-05-28T22:05:47.947Z,15.07
2019-05-28T22:08:17.433Z,14.95
2019-05-28T22:10:46.948Z,14.91
2019-05-28T22:13:22.262Z,14.82
2019-05-28T22:15:47.786Z,14.79
2019-05-28T22:18:17.319Z,14.71
2019-05-28T22:20:46.817Z,14.49
2019-05-28T22:23:16.320Z,14.55
2019-05-28T22:25:45.809Z,14.66
2019-05-28T22:28:15.402Z,14.50
2019-05-28T22:30:45.054Z,14.59
2019-05-28T22:33:14.547Z,14.34
2019-05-28T22:35:44.156Z,14.34
2019-05-28T22:38:13.752Z,14.40
2019-05-28T22:40:43.254Z,14.38
2019-05-28T22:43:12.757Z,14.33
2019-05-28T22:45:43.303Z,14.52
2019-05-28T22:48:16.756Z,14.58
2019-05-28T22:50:44.218Z,14.80
2019-05-28T22:53:13.742Z,14.84
2019-05-28T22:55:43.228Z,15.01
2019-05-28T22:58:12.729Z,15.16
2019-05-28T23:00:42.214Z,15.22
2019-05-28T23:03:11.701Z,15.24
2019-05-28T23:05:42.131Z,15.17
2019-05-28T23:08:11.629Z,15.25
2019-05-28T23:10:41.140Z,15.13
2019-05-28T23:13:11.239Z,14.99
2019-05-28T23:15:40.717Z,14.94
2019-05-28T23:18:11.202Z,14.82
2019-05-28T23:20:40.689Z,14.70
2019-05-28T23:23:11.365Z,14.54
2019-05-28T23:25:40.949Z,14.53
2019-05-28T23:28:10.458Z,14.58
2019-05-28T23:30:40.942Z,14.45
2019-05-28T23:33:12.995Z,14.41
2019-05-28T23:35:43.827Z,14.50
2019-05-28T23:38:13.731Z,14.55
2019-05-28T23:40:43.222Z,14.70
2019-05-28T23:43:13.825Z,14.82
2019-05-28T23:45:43.484Z,14.88
2019-05-28T23:48:18.288Z,14.83
2019-05-28T23:50:46.032Z,14.75
2019-05-28T23:53:15.604Z,14.74
2019-05-28T23:55:46.243Z,14.74
2019-05-28T23:58:16.490Z,14.74
